sensor_id;sensor_type;location;lat;lon;timestamp;pressure;altitude;pressure_sealevel;temperature;humidity
56681;BME280;42558;52.388;13.390;2023-08-01T00:01:14;99684.04;;;16.81;100.00
56681;BME280;42558;52.388;13.390;2023-08-01T00:03:45;99677.52;;;16.73;100.00
56681;BME280;42558;52.388;13.390;2023-08-01T00:06:14;99670.86;;;16.69;100.00
56681;BME280;42558;52.388;13.390;2023-08-01T00:08:44;99669.77;;;16.63;100.00
56681;BME280;42558;52.388;13.390;2023-08-01T00:11:14;99669.64;;;16.62;100.00
56681;BME280;42558;52.388;13.390;2023-08-01T00:13:45;99666.20;;;16.57;100.00
56681;BME280;42558;52.388;13.390;2023-08-01T00:16:15;99665.16;;;16.57;100.00
56681;BME280;42558;52.388;13.390;2023-08-01T00:18:46;99659.39;;;16.48;100.00
56681;BME280;42558;52.388;13.390;2023-08-01T00:21:15;99657.69;;;16.45;100.00
56681;BME280;42558;52.388;13.390;2023-08-01T00:23:45;99654.33;;;16.45;100.00
56681;BME280;42558;52.388;13.390;2023-08-01T00:26:15;99649.85;;;16.40;100.00
56681;BME280;42558;52.388;13.390;2023-08-01T00:28:45;99648.54;;;16.36;100.00
56681;BME280;42558;52.388;13.390;2023-08-01T00:31:15;99639.63;;;16.38;100.00
56681;BME280;42558;52.388;13.390;2023-08-01T00:33:45;99638.81;;;16.29;100.00
56681;BME280;42558;52.388;13.390;2023-08-01T00:36:15;99633.16;;;16.22;100.00
56681;BME280;42558;52.388;13.390;2023-08-01T00:38:45;99632.57;;;16.17;100.00
56681;BME280;42558;52.388;13.390;2023-08-01T00:41:15;99629.55;;;16.11;100.00
56681;BME280;42558;52.388;13.390;2023-08-01T00:43:45;99623.52;;;16.04;100.00
56681;BME280;42558;52.388;13.390;2023-08-01T00:46:15;99614.44;;;15.99;100.00
56681;BME280;42558;52.388;13.390;2023-08-01T00:48:46;99608.85;;;15.97;100.00
56681;BME280;42558;52.388;13.390;2023-08-01T00:51:16;99605.85;;;15.89;100.00
56681;BME280;42558;52.388;13.390;2023-08-01T00:53:48;99601.73;;;15.91;100.00
56681;BME280;42558;52.388;13.390;2023-08-01T00:56:18;99595.96;;;15.88;100.00
56681;BME280;42558;52.388;13.390;2023-08-01T00:58:49;99592.98;;;15.87;100.00
56681;BME280;42558;52.388;13.390;2023-08-01T01:01:19;99589.95;;;15.87;100.00
56681;BME280;42558;52.388;13.390;2023-08-01T01:03:50;99585.45;;;15.83;100.00
56681;BME280;42558;52.388;13.390;2023-08-01T01:06:45;99580.66;;;15.83;100.00
56681;BME280;42558;52.388;13.390;2023-08-01T01:09:19;99579.27;;;15.82;100.00
56681;BME280;42558;52.388;13.390;2023-08-01T01:11:49;99578.62;;;15.80;100.00
56681;BME280;42558;52.388;13.390;2023-08-01T01:14:20;99574.71;;;15.81;100.00
56681;BME280;42558;52.388;13.390;2023-08-01T01:16:48;99568.89;;;15.80;100.00
56681;BME280;42558;52.388;13.390;2023-08-01T01:19:17;99570.12;;;15.80;100.00
56681;BME280;42558;52.388;13.390;2023-08-01T01:21:47;99569.83;;;15.77;100.00
56681;BME280;42558;52.388;13.390;2023-08-01T01:24:19;99559.97;;;15.75;100.00
56681;BME280;42558;52.388;13.390;2023-08-01T01:26:49;99548.95;;;15.76;100.00
56681;BME280;42558;52.388;13.390;2023-08-01T01:29:22;99528.90;;;15.77;100.00
56681;BME280;42558;52.388;13.390;2023-08-01T01:31:53;99515.69;;;15.75;100.00
56681;BME280;42558;52.388;13.390;2023-08-01T01:34:25;99514.89;;;15.78;100.00
56681;BME280;42558;52.388;13.390;2023-08-01T01:36:56;99512.81;;;15.76;100.00
56681;BME280;42558;52.388;13.390;2023-08-01T01:39:25;99509.20;;;15.72;100.00
56681;BME280;42558;52.388;13.390;2023-08-01T01:41:53;99509.89;;;15.73;100.00
56681;BME280;42558;52.388;13.390;2023-08-01T01:44:22;99506.06;;;15.70;100.00
56681;BME280;42558;52.388;13.390;2023-08-01T01:46:50;99496.13;;;15.70;100.00
56681;BME280;42558;52.388;13.390;2023-08-01T01:49:19;99500.69;;;15.72;100.00
56681;BME280;42558;52.388;13.390;2023-08-01T01:51:47;99506.70;;;15.73;100.00
56681;BME280;42558;52.388;13.390;2023-08-01T01:54:16;99498.08;;;15.76;100.00
56681;BME280;42558;52.388;13.390;2023-08-01T01:56:44;99499.21;;;15.81;100.00
56681;BME280;42558;52.388;13.390;2023-08-01T01:59:13;99494.95;;;15.81;100.00
56681;BME280;42558;52.388;13.390;2023-08-01T02:01:43;99490.32;;;15.81;100.00
56681;BME280;42558;52.388;13.390;2023-08-01T02:04:11;99484.39;;;15.84;100.00
56681;BME280;42558;52.388;13.390;2023-08-01T02:06:40;99475.38;;;15.78;100.00
56681;BME280;42558;52.388;13.390;2023-08-01T02:09:08;99460.50;;;15.76;100.00
56681;BME280;42558;52.388;13.390;2023-08-01T02:11:38;99457.46;;;15.77;100.00
56681;BME280;42558;52.388;13.390;2023-08-01T02:14:07;99449.80;;;15.80;100.00
56681;BME280;42558;52.388;13.390;2023-08-01T02:16:35;99452.52;;;15.77;100.00
56681;BME280;42558;52.388;13.390;2023-08-01T02:19:04;99442.67;;;15.74;100.00
56681;BME280;42558;52.388;13.390;2023-08-01T02:21:32;99434.69;;;15.75;100.00
56681;BME280;42558;52.388;13.390;2023-08-01T02:24:01;99434.42;;;15.71;100.00
56681;BME280;42558;52.388;13.390;2023-08-01T02:26:30;99434.41;;;15.73;100.00
56681;BME280;42558;52.388;13.390;2023-08-01T02:28:58;99425.39;;;15.72;100.00
56681;BME280;42558;52.388;13.390;2023-08-01T02:31:26;99421.86;;;15.71;100.00
56681;BME280;42558;52.388;13.390;2023-08-01T02:33:55;99422.97;;;15.69;100.00
56681;BME280;42558;52.388;13.390;2023-08-01T02:36:23;99417.13;;;15.69;100.00
56681;BME280;42558;52.388;13.390;2023-08-01T02:38:51;99417.89;;;15.67;100.00
56681;BME280;42558;52.388;13.390;2023-08-01T02:41:20;99413.92;;;15.70;100.00
56681;BME280;42558;52.388;13.390;2023-08-01T02:43:48;99412.17;;;15.69;100.00
56681;BME280;42558;52.388;13.390;2023-08-01T02:46:17;99410.16;;;15.71;100.00
56681;BME280;42558;52.388;13.390;2023-08-01T02:48:45;99407.36;;;15.70;100.00
56681;BME280;42558;52.388;13.390;2023-08-01T02:51:14;99406.79;;;15.72;100.00
56681;BME280;42558;52.388;13.390;2023-08-01T02:53:42;99405.89;;;15.72;100.00
56681;BME280;42558;52.388;13.390;2023-08-01T02:56:12;99402.13;;;15.73;100.00
56681;BME280;42558;52.388;13.390;2023-08-01T02:58:41;99401.75;;;15.74;100.00
56681;BME280;42558;52.388;13.390;2023-08-01T03:01:09;99397.15;;;15.74;100.00
56681;BME280;42558;52.388;13.390;2023-08-01T03:03:37;99393.55;;;15.75;100.00
56681;BME280;42558;52.388;13.390;2023-08-01T03:06:08;99391.00;;;15.77;100.00
56681;BME280;42558;52.388;13.390;2023-08-01T03:08:36;99377.92;;;15.76;100.00
56681;BME280;42558;52.388;13.390;2023-08-01T03:11:05;99378.26;;;15.77;100.00
56681;BME280;42558;52.388;13.390;2023-08-01T03:13:33;99376.66;;;15.77;100.00
56681;BME280;42558;52.388;13.390;2023-08-01T03:16:01;99373.81;;;15.77;100.00
56681;BME280;42558;52.388;13.390;2023-08-01T03:18:33;99370.29;;;15.77;100.00
56681;BME280;42558;52.388;13.390;2023-08-01T03:21:01;99367.27;;;15.77;100.00
56681;BME280;42558;52.388;13.390;2023-08-01T03:23:34;99364.83;;;15.76;100.00
56681;BME280;42558;52.388;13.390;2023-08-01T03:26:04;99360.13;;;15.73;100.00
56681;BME280;42558;52.388;13.390;2023-08-01T03:28:34;99359.48;;;15.72;100.00
56681;BME280;42558;52.388;13.390;2023-08-01T03:31:04;99356.34;;;15.69;100.00
56681;BME280;42558;52.388;13.390;2023-08-01T03:33:34;99354.46;;;15.68;100.00
56681;BME280;42558;52.388;13.390;2023-08-01T03:36:04;99351.79;;;15.68;100.00
56681;BME280;42558;52.388;13.390;2023-08-01T03:38:34;99348.08;;;15.67;100.00
56681;BME280;42558;52.388;13.390;2023-08-01T03:41:04;99351.65;;;15.67;100.00
56681;BME280;42558;52.388;13.390;2023-08-01T03:43:34;99347.27;;;15.65;100.00
56681;BME280;42558;52.388;13.390;2023-08-01T03:46:04;99345.14;;;15.66;100.00
56681;BME280;42558;52.388;13.390;2023-08-01T03:48:34;99351.92;;;15.63;100.00
56681;BME280;42558;52.388;13.390;2023-08-01T03:51:04;99345.38;;;15.63;100.00
56681;BME280;42558;52.388;13.390;2023-08-01T03:53:34;99338.54;;;15.67;100.00
56681;BME280;42558;52.388;13.390;2023-08-01T03:56:04;99340.86;;;15.66;100.00
56681;BME280;42558;52.388;13.390;2023-08-01T03:58:34;99339.42;;;15.67;100.00
56681;BME280;42558;52.388;13.390;2023-08-01T04:01:04;99337.06;;;15.69;100.00
56681;BME280;42558;52.388;13.390;2023-08-01T04:03:36;99336.86;;;15.69;100.00
56681;BME280;42558;52.388;13.390;2023-08-01T04:06:06;99341.58;;;15.72;100.00
56681;BME280;42558;52.388;13.390;2023-08-01T04:08:36;99338.27;;;15.75;100.00
56681;BME280;42558;52.388;13.390;2023-08-01T04:11:06;99333.45;;;15.76;100.00
56681;BME280;42558;52.388;13.390;2023-08-01T04:13:51;99323.84;;;15.77;100.00
56681;BME280;42558;52.388;13.390;2023-08-01T04:16:19;99324.30;;;15.80;100.00
56681;BME280;42558;52.388;13.390;2023-08-01T04:18:50;99324.11;;;15.87;100.00
56681;BME280;42558;52.388;13.390;2023-08-01T04:21:19;99322.37;;;15.91;100.00
56681;BME280;42558;52.388;13.390;2023-08-01T04:23:49;99321.81;;;15.92;100.00
56681;BME280;42558;52.388;13.390;2023-08-01T04:26:18;99319.45;;;15.99;100.00
56681;BME280;42558;52.388;13.390;2023-08-01T04:28:47;99317.71;;;16.03;100.00
56681;BME280;42558;52.388;13.390;2023-08-01T04:31:15;99316.98;;;16.04;100.00
56681;BME280;42558;52.388;13.390;2023-08-01T04:33:44;99318.39;;;16.11;100.00
56681;BME280;42558;52.388;13.390;2023-08-01T04:36:12;99317.94;;;16.07;100.00
56681;BME280;42558;52.388;13.390;2023-08-01T04:38:40;99318.96;;;16.09;100.00
56681;BME280;42558;52.388;13.390;2023-08-01T04:41:09;99314.52;;;16.09;100.00
56681;BME280;42558;52.388;13.390;2023-08-01T04:43:37;99312.60;;;16.08;100.00
56681;BME280;42558;52.388;13.390;2023-08-01T04:46:06;99312.30;;;16.06;100.00
56681;BME280;42558;52.388;13.390;2023-08-01T04:48:35;99310.45;;;16.03;100.00
56681;BME280;42558;52.388;13.390;2023-08-01T04:51:05;99303.70;;;16.04;100.00
56681;BME280;42558;52.388;13.390;2023-08-01T04:53:35;99298.55;;;16.04;100.00
56681;BME280;42558;52.388;13.390;2023-08-01T04:56:05;99294.64;;;16.04;100.00
56681;BME280;42558;52.388;13.390;2023-08-01T04:58:35;99291.42;;;16.05;100.00
56681;BME280;42558;52.388;13.390;2023-08-01T05:01:06;99284.50;;;16.05;100.00
56681;BME280;42558;52.388;13.390;2023-08-01T05:03:36;99285.56;;;16.06;100.00
56681;BME280;42558;52.388;13.390;2023-08-01T05:06:06;99279.73;;;16.05;100.00
56681;BME280;42558;52.388;13.390;2023-08-01T05:08:36;99275.29;;;16.05;100.00
56681;BME280;42558;52.388;13.390;2023-08-01T05:11:05;99267.88;;;16.04;100.00
56681;BME280;42558;52.388;13.390;2023-08-01T05:13:35;99269.59;;;16.00;100.00
56681;BME280;42558;52.388;13.390;2023-08-01T05:16:05;99267.16;;;15.99;100.00
56681;BME280;42558;52.388;13.390;2023-08-01T05:18:35;99263.58;;;15.95;100.00
56681;BME280;42558;52.388;13.390;2023-08-01T05:21:05;99257.02;;;15.95;100.00
56681;BME280;42558;52.388;13.390;2023-08-01T05:23:35;99252.17;;;15.96;100.00
56681;BME280;42558;52.388;13.390;2023-08-01T05:26:05;99250.84;;;16.00;100.00
56681;BME280;42558;52.388;13.390;2023-08-01T05:28:35;99246.70;;;16.01;100.00
56681;BME280;42558;52.388;13.390;2023-08-01T05:31:05;99250.50;;;16.04;100.00
56681;BME280;42558;52.388;13.390;2023-08-01T05:33:35;99245.14;;;16.05;100.00
56681;BME280;42558;52.388;13.390;2023-08-01T05:36:05;99246.67;;;16.08;100.00
56681;BME280;42558;52.388;13.390;2023-08-01T05:38:35;99241.35;;;16.13;100.00
56681;BME280;42558;52.388;13.390;2023-08-01T05:41:05;99232.70;;;16.17;100.00
56681;BME280;42558;52.388;13.390;2023-08-01T05:43:36;99229.20;;;16.16;100.00
56681;BME280;42558;52.388;13.390;2023-08-01T05:46:06;99236.98;;;16.21;100.00
56681;BME280;42558;52.388;13.390;2023-08-01T05:48:36;99240.02;;;16.26;100.00
56681;BME280;42558;52.388;13.390;2023-08-01T05:51:06;99236.87;;;16.30;100.00
56681;BME280;42558;52.388;13.390;2023-08-01T05:53:36;99239.31;;;16.31;100.00
56681;BME280;42558;52.388;13.390;2023-08-01T05:56:07;99237.27;;;16.34;100.00
56681;BME280;42558;52.388;13.390;2023-08-01T05:58:37;99239.42;;;16.33;100.00
56681;BME280;42558;52.388;13.390;2023-08-01T06:01:07;99235.91;;;16.27;100.00
56681;BME280;42558;52.388;13.390;2023-08-01T06:03:38;99238.85;;;16.29;100.00
56681;BME280;42558;52.388;13.390;2023-08-01T06:06:08;99240.27;;;16.29;100.00
56681;BME280;42558;52.388;13.390;2023-08-01T06:08:38;99242.50;;;16.26;100.00
56681;BME280;42558;52.388;13.390;2023-08-01T06:11:08;99244.55;;;16.28;100.00
56681;BME280;42558;52.388;13.390;2023-08-01T06:13:38;99245.46;;;16.27;100.00
56681;BME280;42558;52.388;13.390;2023-08-01T06:16:07;99247.43;;;16.33;100.00
56681;BME280;42558;52.388;13.390;2023-08-01T06:18:35;99246.14;;;16.34;100.00
56681;BME280;42558;52.388;13.390;2023-08-01T06:21:04;99238.92;;;16.32;100.00
56681;BME280;42558;52.388;13.390;2023-08-01T06:23:33;99231.41;;;16.34;100.00
56681;BME280;42558;52.388;13.390;2023-08-01T06:26:03;99228.83;;;16.37;100.00
56681;BME280;42558;52.388;13.390;2023-08-01T06:28:32;99231.61;;;16.38;100.00
56681;BME280;42558;52.388;13.390;2023-08-01T06:31:02;99228.15;;;16.41;100.00
56681;BME280;42558;52.388;13.390;2023-08-01T06:33:32;99223.20;;;16.40;100.00
56681;BME280;42558;52.388;13.390;2023-08-01T06:36:03;99223.89;;;16.36;100.00
56681;BME280;42558;52.388;13.390;2023-08-01T06:38:33;99217.55;;;16.40;100.00
56681;BME280;42558;52.388;13.390;2023-08-01T06:41:03;99212.70;;;16.42;100.00
56681;BME280;42558;52.388;13.390;2023-08-01T06:43:31;99214.10;;;16.42;100.00
56681;BME280;42558;52.388;13.390;2023-08-01T06:46:01;99217.55;;;16.50;100.00
56681;BME280;42558;52.388;13.390;2023-08-01T06:48:31;99213.97;;;16.50;100.00
56681;BME280;42558;52.388;13.390;2023-08-01T06:51:04;99219.92;;;16.43;100.00
56681;BME280;42558;52.388;13.390;2023-08-01T06:53:32;99219.14;;;16.55;100.00
56681;BME280;42558;52.388;13.390;2023-08-01T06:56:02;99219.09;;;16.52;100.00
56681;BME280;42558;52.388;13.390;2023-08-01T06:58:30;99216.95;;;16.52;100.00
56681;BME280;42558;52.388;13.390;2023-08-01T07:01:00;99216.20;;;16.53;100.00
56681;BME280;42558;52.388;13.390;2023-08-01T07:03:29;99216.86;;;16.54;100.00
56681;BME280;42558;52.388;13.390;2023-08-01T07:06:00;99218.46;;;16.58;100.00
56681;BME280;42558;52.388;13.390;2023-08-01T07:08:28;99217.45;;;16.58;100.00
56681;BME280;42558;52.388;13.390;2023-08-01T07:10:58;99218.19;;;16.61;100.00
56681;BME280;42558;52.388;13.390;2023-08-01T07:13:29;99212.15;;;16.62;100.00
56681;BME280;42558;52.388;13.390;2023-08-01T07:15:58;99213.83;;;16.55;100.00
56681;BME280;42558;52.388;13.390;2023-08-01T07:18:26;99213.25;;;16.61;100.00
56681;BME280;42558;52.388;13.390;2023-08-01T07:21:02;99210.27;;;16.60;100.00
56681;BME280;42558;52.388;13.390;2023-08-01T07:23:34;99208.35;;;16.70;100.00
56681;BME280;42558;52.388;13.390;2023-08-01T07:26:04;99200.45;;;16.77;100.00
56681;BME280;42558;52.388;13.390;2023-08-01T07:28:32;99203.55;;;16.84;100.00
56681;BME280;42558;52.388;13.390;2023-08-01T07:31:04;99198.35;;;17.00;100.00
56681;BME280;42558;52.388;13.390;2023-08-01T07:33:33;99188.45;;;17.27;100.00
56681;BME280;42558;52.388;13.390;2023-08-01T07:36:03;99183.68;;;17.22;100.00
56681;BME280;42558;52.388;13.390;2023-08-01T07:38:31;99182.14;;;17.34;100.00
56681;BME280;42558;52.388;13.390;2023-08-01T07:41:05;99177.70;;;17.38;100.00
56681;BME280;42558;52.388;13.390;2023-08-01T07:43:37;99184.13;;;17.46;100.00
56681;BME280;42558;52.388;13.390;2023-08-01T07:46:06;99191.07;;;17.46;100.00
56681;BME280;42558;52.388;13.390;2023-08-01T07:48:38;99199.79;;;17.63;100.00
56681;BME280;42558;52.388;13.390;2023-08-01T07:51:08;99199.64;;;17.62;100.00
56681;BME280;42558;52.388;13.390;2023-08-01T07:53:42;99196.71;;;17.69;100.00
56681;BME280;42558;52.388;13.390;2023-08-01T07:56:11;99197.23;;;17.70;100.00
56681;BME280;42558;52.388;13.390;2023-08-01T07:58:41;99194.60;;;17.56;100.00
56681;BME280;42558;52.388;13.390;2023-08-01T08:01:11;99188.60;;;17.59;100.00
56681;BME280;42558;52.388;13.390;2023-08-01T08:03:42;99187.55;;;17.93;100.00
56681;BME280;42558;52.388;13.390;2023-08-01T08:06:12;99191.66;;;18.06;100.00
56681;BME280;42558;52.388;13.390;2023-08-01T08:08:42;99189.26;;;17.96;100.00
56681;BME280;42558;52.388;13.390;2023-08-01T08:11:10;99185.45;;;18.05;100.00
56681;BME280;42558;52.388;13.390;2023-08-01T08:13:39;99183.32;;;18.18;100.00
56681;BME280;42558;52.388;13.390;2023-08-01T08:16:07;99179.84;;;18.20;100.00
56681;BME280;42558;52.388;13.390;2023-08-01T08:18:36;99179.45;;;18.29;100.00
56681;BME280;42558;52.388;13.390;2023-08-01T08:21:06;99181.67;;;18.40;100.00
56681;BME280;42558;52.388;13.390;2023-08-01T08:23:34;99181.97;;;18.65;100.00
56681;BME280;42558;52.388;13.390;2023-08-01T08:26:03;99174.55;;;19.03;100.00
56681;BME280;42558;52.388;13.390;2023-08-01T08:28:33;99173.52;;;19.55;100.00
56681;BME280;42558;52.388;13.390;2023-08-01T08:31:01;99171.45;;;19.97;100.00
56681;BME280;42558;52.388;13.390;2023-08-01T08:33:33;99168.14;;;20.03;100.00
56681;BME280;42558;52.388;13.390;2023-08-01T08:36:03;99167.95;;;19.92;100.00
56681;BME280;42558;52.388;13.390;2023-08-01T08:38:33;99171.64;;;19.83;100.00
56681;BME280;42558;52.388;13.390;2023-08-01T08:41:14;99178.44;;;19.90;100.00
56681;BME280;42558;52.388;13.390;2023-08-01T08:43:48;99183.83;;;20.03;100.00
56681;BME280;42558;52.388;13.390;2023-08-01T08:46:21;99182.64;;;19.80;100.00
56681;BME280;42558;52.388;13.390;2023-08-01T08:48:50;99182.55;;;19.72;100.00
56681;BME280;42558;52.388;13.390;2023-08-01T08:51:20;99181.53;;;19.67;100.00
56681;BME280;42558;52.388;13.390;2023-08-01T08:53:50;99178.47;;;19.67;100.00
56681;BME280;42558;52.388;13.390;2023-08-01T08:56:23;99174.61;;;19.98;100.00
56681;BME280;42558;52.388;13.390;2023-08-01T08:58:52;99171.25;;;20.11;99.56
56681;BME280;42558;52.388;13.390;2023-08-01T09:01:23;99169.81;;;20.50;98.34
56681;BME280;42558;52.388;13.390;2023-08-01T09:03:53;99175.02;;;20.50;94.22
56681;BME280;42558;52.388;13.390;2023-08-01T09:06:32;99171.56;;;20.54;95.96
56681;BME280;42558;52.388;13.390;2023-08-01T09:09:12;99178.13;;;20.52;95.91
56681;BME280;42558;52.388;13.390;2023-08-01T09:11:46;99177.89;;;20.53;94.84
56681;BME280;42558;52.388;13.390;2023-08-01T09:14:18;99162.71;;;20.32;93.88
56681;BME280;42558;52.388;13.390;2023-08-01T09:16:49;99161.64;;;20.50;93.61
56681;BME280;42558;52.388;13.390;2023-08-01T09:19:23;99165.42;;;20.66;92.04
56681;BME280;42558;52.388;13.390;2023-08-01T09:21:54;99162.54;;;20.63;90.50
56681;BME280;42558;52.388;13.390;2023-08-01T09:24:25;99159.30;;;20.80;87.38
56681;BME280;42558;52.388;13.390;2023-08-01T09:27:03;99159.04;;;20.72;88.00
56681;BME280;42558;52.388;13.390;2023-08-01T09:29:38;99162.71;;;20.63;87.33
56681;BME280;42558;52.388;13.390;2023-08-01T09:32:14;99162.41;;;20.45;86.20
56681;BME280;42558;52.388;13.390;2023-08-01T09:34:44;99162.57;;;20.17;85.94
56681;BME280;42558;52.388;13.390;2023-08-01T09:37:14;99171.04;;;19.95;86.84
56681;BME280;42558;52.388;13.390;2023-08-01T09:39:42;99174.69;;;19.75;90.53
56681;BME280;42558;52.388;13.390;2023-08-01T09:42:14;99183.42;;;19.53;91.28
56681;BME280;42558;52.388;13.390;2023-08-01T09:44:45;99182.62;;;18.98;96.28
56681;BME280;42558;52.388;13.390;2023-08-01T09:47:16;99179.37;;;18.80;100.00
56681;BME280;42558;52.388;13.390;2023-08-01T09:49:49;99175.95;;;18.89;100.00
56681;BME280;42558;52.388;13.390;2023-08-01T09:52:28;99170.10;;;18.95;100.00
56681;BME280;42558;52.388;13.390;2023-08-01T09:54:58;99167.06;;;19.18;100.00
56681;BME280;42558;52.388;13.390;2023-08-01T09:57:31;99169.80;;;19.25;99.74
56681;BME280;42558;52.388;13.390;2023-08-01T10:00:01;99171.75;;;19.55;99.72
56681;BME280;42558;52.388;13.390;2023-08-01T10:02:33;99176.48;;;19.83;99.63
56681;BME280;42558;52.388;13.390;2023-08-01T10:05:04;99171.73;;;19.81;95.67
56681;BME280;42558;52.388;13.390;2023-08-01T10:07:38;99168.73;;;19.81;95.65
56681;BME280;42558;52.388;13.390;2023-08-01T10:10:11;99172.77;;;19.45;94.73
56681;BME280;42558;52.388;13.390;2023-08-01T10:12:45;99166.94;;;19.25;95.57
56681;BME280;42558;52.388;13.390;2023-08-01T10:15:16;99165.89;;;19.13;98.64
56681;BME280;42558;52.388;13.390;2023-08-01T10:17:44;99169.33;;;19.04;100.00
56681;BME280;42558;52.388;13.390;2023-08-01T10:20:15;99166.79;;;19.09;99.69
56681;BME280;42558;52.388;13.390;2023-08-01T10:22:50;99165.68;;;19.14;98.53
56681;BME280;42558;52.388;13.390;2023-08-01T10:25:20;99165.27;;;19.26;99.77
56681;BME280;42558;52.388;13.390;2023-08-01T10:28:00;99166.77;;;19.40;97.49
56681;BME280;42558;52.388;13.390;2023-08-01T10:30:31;99167.40;;;19.52;96.80
56681;BME280;42558;52.388;13.390;2023-08-01T10:33:01;99163.89;;;19.55;95.94
56681;BME280;42558;52.388;13.390;2023-08-01T10:35:39;99161.27;;;19.54;95.71
56681;BME280;42558;52.388;13.390;2023-08-01T10:38:11;99161.09;;;19.58;96.44
56681;BME280;42558;52.388;13.390;2023-08-01T10:40:43;99163.31;;;19.56;94.86
56681;BME280;42558;52.388;13.390;2023-08-01T10:43:23;99168.64;;;19.61;96.47
56681;BME280;42558;52.388;13.390;2023-08-01T10:46:05;99166.35;;;19.48;96.05
56681;BME280;42558;52.388;13.390;2023-08-01T10:48:34;99165.36;;;19.39;97.81
56681;BME280;42558;52.388;13.390;2023-08-01T10:51:02;99163.39;;;19.50;97.15
56681;BME280;42558;52.388;13.390;2023-08-01T10:53:40;99169.58;;;19.44;97.14
56681;BME280;42558;52.388;13.390;2023-08-01T10:56:20;99188.24;;;19.38;98.61
56681;BME280;42558;52.388;13.390;2023-08-01T10:58:50;99200.08;;;18.58;100.00
56681;BME280;42558;52.388;13.390;2023-08-01T11:01:18;99206.23;;;17.76;100.00
56681;BME280;42558;52.388;13.390;2023-08-01T11:03:47;99198.04;;;17.45;100.00
56681;BME280;42558;52.388;13.390;2023-08-01T11:06:14;99208.04;;;17.48;100.00
56681;BME280;42558;52.388;13.390;2023-08-01T11:08:43;99205.03;;;17.39;100.00
56681;BME280;42558;52.388;13.390;2023-08-01T11:11:14;99196.11;;;17.35;100.00
56681;BME280;42558;52.388;13.390;2023-08-01T11:13:52;99193.85;;;17.30;100.00
56681;BME280;42558;52.388;13.390;2023-08-01T11:16:22;99206.62;;;17.34;100.00
56681;BME280;42558;52.388;13.390;2023-08-01T11:18:52;99206.81;;;17.30;100.00
56681;BME280;42558;52.388;13.390;2023-08-01T11:21:27;99211.17;;;17.18;100.00
56681;BME280;42558;52.388;13.390;2023-08-01T11:23:57;99216.55;;;17.12;100.00
56681;BME280;42558;52.388;13.390;2023-08-01T11:26:27;99219.09;;;17.15;100.00
56681;BME280;42558;52.388;13.390;2023-08-01T11:29:04;99225.10;;;17.16;100.00
56681;BME280;42558;52.388;13.390;2023-08-01T11:31:34;99218.11;;;17.18;100.00
56681;BME280;42558;52.388;13.390;2023-08-01T11:34:05;99227.85;;;16.99;100.00
56681;BME280;42558;52.388;13.390;2023-08-01T11:36:36;99233.48;;;16.91;100.00
56681;BME280;42558;52.388;13.390;2023-08-01T11:39:05;99235.14;;;16.89;100.00
56681;BME280;42558;52.388;13.390;2023-08-01T11:41:35;99232.41;;;16.96;100.00
56681;BME280;42558;52.388;13.390;2023-08-01T11:44:05;99225.85;;;17.00;100.00
56681;BME280;42558;52.388;13.390;2023-08-01T11:46:36;99228.09;;;17.02;100.00
56681;BME280;42558;52.388;13.390;2023-08-01T11:49:08;99237.20;;;17.01;100.00
56681;BME280;42558;52.388;13.390;2023-08-01T11:51:44;99237.50;;;17.03;100.00
56681;BME280;42558;52.388;13.390;2023-08-01T11:54:14;99239.68;;;17.16;100.00
56681;BME280;42558;52.388;13.390;2023-08-01T11:56:43;99242.86;;;17.11;100.00
56681;BME280;42558;52.388;13.390;2023-08-01T11:59:17;99240.38;;;17.39;100.00
56681;BME280;42558;52.388;13.390;2023-08-01T12:01:47;99245.23;;;17.64;100.00
56681;BME280;42558;52.388;13.390;2023-08-01T12:04:27;99251.02;;;17.66;100.00
56681;BME280;42558;52.388;13.390;2023-08-01T12:06:57;99249.56;;;17.99;100.00
56681;BME280;42558;52.388;13.390;2023-08-01T12:09:32;99245.02;;;18.14;100.00
56681;BME280;42558;52.388;13.390;2023-08-01T12:12:01;99244.41;;;18.29;100.00
56681;BME280;42558;52.388;13.390;2023-08-01T12:14:31;99245.02;;;18.35;100.00
56681;BME280;42558;52.388;13.390;2023-08-01T12:17:01;99247.20;;;18.35;100.00
56681;BME280;42558;52.388;13.390;2023-08-01T12:19:31;99247.36;;;18.51;100.00
56681;BME280;42558;52.388;13.390;2023-08-01T12:22:03;99243.98;;;18.68;100.00
56681;BME280;42558;52.388;13.390;2023-08-01T12:24:33;99250.73;;;18.65;100.00
56681;BME280;42558;52.388;13.390;2023-08-01T12:27:07;99253.77;;;18.47;100.00
56681;BME280;42558;52.388;13.390;2023-08-01T12:29:35;99254.19;;;18.34;100.00
56681;BME280;42558;52.388;13.390;2023-08-01T12:32:06;99249.19;;;18.46;100.00
56681;BME280;42558;52.388;13.390;2023-08-01T12:34:36;99247.14;;;18.57;100.00
56681;BME280;42558;52.388;13.390;2023-08-01T12:37:06;99252.30;;;18.44;100.00
56681;BME280;42558;52.388;13.390;2023-08-01T12:39:36;99244.69;;;18.88;100.00
56681;BME280;42558;52.388;13.390;2023-08-01T12:42:06;99244.11;;;19.32;98.76
56681;BME280;42558;52.388;13.390;2023-08-01T12:44:36;99245.33;;;19.17;96.55
56681;BME280;42558;52.388;13.390;2023-08-01T12:47:06;99246.42;;;19.09;97.32
56681;BME280;42558;52.388;13.390;2023-08-01T12:49:37;99247.92;;;19.23;100.00
56681;BME280;42558;52.388;13.390;2023-08-01T12:52:07;99248.11;;;19.30;99.19
56681;BME280;42558;52.388;13.390;2023-08-01T12:54:36;99251.13;;;19.42;99.93
56681;BME280;42558;52.388;13.390;2023-08-01T12:57:06;99252.16;;;19.36;95.65